Aérodrome :
LOGIN :

S'inscrire | Disclaimer

   EN    FR    IT 

 










Légende :    VFR   VFR Marginal   IFR   IFR Intensif   IFR Très Intensif
Visi : 
Plafond : 
>= 8 km
>= 3000ft
5 à 8 km
1000 à 3000 ft
1500m à 5 km
500 à 1000 ft
800 à 1500m
200 à 500 ft
< 800m
< 200 ft
Symboles :   Orages  Brouillard  Fortes neiges  Fortes précipitations  Vent > 20 kt
SIGMETs :   Divers  Orages  Givrage  Turbulence  Onde Orograph.  Cendres Volcan.






- Altitude de l'aérodrome : 3 ft
- Code IATA : DHR


EHKD - Den Helder De Kooy

DERNIER METAR :
  • 070155Z AUTO 25006KT 9999 BKN085 13/09 Q1020 BLU

METARs EXPIRÉS :
  • 070125Z AUTO 26004KT 9999 FEW021 OVC083 13/09 Q1020 BLU
  • 070055Z AUTO 26005KT 9999 FEW022 BKN082 12/09 Q1020 BLU
  • 070025Z AUTO 26005KT 9999 FEW022 12/09 Q1020 BLU
  • 070013Z AUTO 27004KT 230V300 9999 SCT020 12/09 Q1020 WHT
  • 070009Z AUTO 28005KT 9999 FEW020 12/09 Q1020 BLU
  • 070001Z AUTO 28005KT 240V300 9999 BKN021 BKN320 13/09 Q1020 WHT
  • 062355Z AUTO 28005KT 9999 FEW021 13/09 Q1021 BLU
  • 062341Z AUTO 29005KT 260V320 9999 SCT022 13/09 Q1021 WHT
  • 062325Z AUTO 29005KT 260V320 9999 NCD 13/09 Q1021 BLU

TAF TAF EHKD
Valide du 07 à 01h jusqu'au 07 à 13h UTC


070001Z 0701/0713 27005KT 9999 SCT020
BECMG 0702/0704 24006KT
TEMPO 0704/0708 4500 SHRA SCT015CB BKN020
BECMG 0706/0708 27012G25KT



MET'MAP, la Météo Aéronautique d'un coup d'oeil ! - Copyright ORBIFLY Décembre 2007 - Disclaimer

ORBIFLY MET'MAP TEAM :

Programmation & Développement : Alexandra Zaïnal
Sur une idée originale de : Baudouin d'Aumeries
Assistance à la programmation : Marc-Olivier Méhu
Soutien technique & logistique : Manuel Goepfert

Contact : metmap@orbifly.com




SOURCES & CREDITS :

   NOAA